createdAt,value
2023-01-12T00:00:47.012Z,1007.56
2023-01-12T00:01:47.007Z,1007.55
2023-01-12T00:02:47.011Z,1007.57
2023-01-12T00:03:47.023Z,1007.63
2023-01-12T00:04:47.008Z,1007.68
2023-01-12T00:05:46.952Z,1007.67
2023-01-12T00:06:46.953Z,1007.70
2023-01-12T00:07:46.928Z,1007.64
2023-01-12T00:08:46.927Z,1007.67
2023-01-12T00:09:46.964Z,1007.66
2023-01-12T00:10:46.899Z,1007.67
2023-01-12T00:11:46.903Z,1007.62
2023-01-12T00:12:46.890Z,1007.58
2023-01-12T00:13:46.892Z,1007.63
2023-01-12T00:14:46.907Z,1007.67
2023-01-12T00:15:46.893Z,1007.61
2023-01-12T00:16:46.850Z,1007.66
2023-01-12T00:17:46.825Z,1007.64
2023-01-12T00:18:46.815Z,1007.66
2023-01-12T00:19:46.806Z,1007.60
2023-01-12T00:20:46.841Z,1007.53
2023-01-12T00:21:46.784Z,1007.53
2023-01-12T00:22:46.772Z,1007.51
2023-01-12T00:23:46.769Z,1007.58
2023-01-12T00:24:46.774Z,1007.63
2023-01-12T00:25:46.785Z,1007.64
2023-01-12T00:26:46.721Z,1007.62
2023-01-12T00:27:46.776Z,1007.61
2023-01-12T00:28:46.692Z,1007.60
2023-01-12T00:29:46.696Z,1007.63
2023-01-12T00:30:46.705Z,1007.66
2023-01-12T00:31:46.655Z,1007.63
2023-01-12T00:32:46.656Z,1007.59
2023-01-12T00:33:46.633Z,1007.63
2023-01-12T00:34:46.642Z,1007.65
2023-01-12T00:35:46.667Z,1007.61
2023-01-12T00:36:46.619Z,1007.64
2023-01-12T00:37:46.606Z,1007.62
2023-01-12T00:38:46.602Z,1007.64
2023-01-12T00:40:00.784Z,1007.59
2023-01-12T00:40:47.602Z,1007.57
2023-01-12T00:41:46.569Z,1007.64
2023-01-12T00:42:46.584Z,1007.63
2023-01-12T00:43:46.534Z,1007.63
2023-01-12T00:44:46.540Z,1007.56
2023-01-12T00:45:46.549Z,1007.60
2023-01-12T00:46:46.502Z,1007.63
2023-01-12T00:47:46.508Z,1007.64
2023-01-12T00:48:46.499Z,1007.57
2023-01-12T00:49:46.522Z,1007.58
2023-01-12T00:50:46.497Z,1007.59
2023-01-12T00:51:46.439Z,1007.53
2023-01-12T00:52:46.436Z,1007.53
2023-01-12T00:53:46.439Z,1007.53
2023-01-12T00:54:46.421Z,1007.56
2023-01-12T00:55:46.455Z,1007.53
2023-01-12T00:56:46.402Z,1007.52
2023-01-12T00:57:46.387Z,1007.48
2023-01-12T00:58:46.362Z,1007.42
2023-01-12T00:59:46.363Z,1007.40
2023-01-12T01:00:46.397Z,1007.33
2023-01-12T01:01:46.396Z,1007.41
2023-01-12T01:02:46.423Z,1007.45
2023-01-12T01:03:46.314Z,1007.54
2023-01-12T01:04:46.301Z,1007.55
2023-01-12T01:05:46.315Z,1007.61
2023-01-12T01:06:46.284Z,1007.59
2023-01-12T01:07:46.277Z,1007.58
2023-01-12T01:08:46.273Z,1007.58
2023-01-12T01:09:46.260Z,1007.55
2023-01-12T01:10:46.273Z,1007.51
2023-01-12T01:11:46.235Z,1007.52
2023-01-12T01:12:46.226Z,1007.50
2023-01-12T01:13:46.241Z,1007.51
2023-01-12T01:14:46.195Z,1007.52
2023-01-12T01:15:46.232Z,1007.57
2023-01-12T01:16:46.171Z,1007.52
2023-01-12T01:17:46.166Z,1007.54
2023-01-12T01:18:46.153Z,1007.56
2023-01-12T01:19:46.162Z,1007.51
2023-01-12T01:20:46.172Z,1007.53
2023-01-12T01:21:46.123Z,1007.53
2023-01-12T01:22:46.114Z,1007.45
2023-01-12T01:23:46.137Z,1007.47
2023-01-12T01:24:46.092Z,1007.45
2023-01-12T01:25:46.118Z,1007.45
2023-01-12T01:26:46.078Z,1007.44
2023-01-12T01:27:46.056Z,1007.42
2023-01-12T01:28:46.051Z,1007.33
2023-01-12T01:29:46.023Z,1007.37
2023-01-12T01:30:46.102Z,1007.39
2023-01-12T01:31:45.997Z,1007.34
2023-01-12T01:32:46.003Z,1007.37
2023-01-12T01:33:45.995Z,1007.35
2023-01-12T01:34:45.979Z,1007.35
2023-01-12T01:35:46.005Z,1007.29
2023-01-12T01:36:45.982Z,1007.33
2023-01-12T01:37:45.954Z,1007.31
2023-01-12T01:38:45.938Z,1007.34
2023-01-12T01:39:45.901Z,1007.32
2023-01-12T01:40:45.951Z,1007.31
2023-01-12T01:41:45.891Z,1007.23
2023-01-12T01:42:45.916Z,1007.25
2023-01-12T01:43:45.883Z,1007.21
2023-01-12T01:44:45.865Z,1007.25
2023-01-12T01:45:45.884Z,1007.24
2023-01-12T01:46:45.960Z,1007.17
2023-01-12T01:47:45.820Z,1007.17
2023-01-12T01:48:45.829Z,1007.12
2023-01-12T01:49:45.823Z,1007.14
2023-01-12T01:50:45.841Z,1007.08
2023-01-12T01:51:45.786Z,1007.19
2023-01-12T01:52:45.795Z,1007.25
2023-01-12T01:53:45.757Z,1007.23
2023-01-12T01:54:45.764Z,1007.17
2023-01-12T01:55:45.770Z,1007.19
2023-01-12T01:56:45.738Z,1007.19
2023-01-12T01:57:45.723Z,1007.23
2023-01-12T01:58:45.715Z,1007.18
2023-01-12T01:59:45.685Z,1007.21
2023-01-12T02:00:45.717Z,1007.18
2023-01-12T02:01:45.732Z,1007.22
2023-01-12T02:02:45.693Z,1007.20
2023-01-12T02:03:45.633Z,1007.21
2023-01-12T02:04:45.653Z,1007.18
2023-01-12T02:05:45.675Z,1007.22
2023-01-12T02:06:45.620Z,1007.24
2023-01-12T02:07:45.596Z,1007.19
2023-01-12T02:08:45.593Z,1007.20
2023-01-12T02:09:45.576Z,1007.27
2023-01-12T02:10:45.611Z,1007.29
2023-01-12T02:11:45.560Z,1007.31
2023-01-12T02:12:45.557Z,1007.35
2023-01-12T02:13:45.537Z,1007.34
2023-01-12T02:14:45.530Z,1007.31
2023-01-12T02:15:45.558Z,1007.29
2023-01-12T02:16:45.497Z,1007.27
2023-01-12T02:17:45.499Z,1007.24
2023-01-12T02:18:45.478Z,1007.29
2023-01-12T02:19:45.466Z,1007.25
2023-01-12T02:20:45.500Z,1007.27
2023-01-12T02:21:45.440Z,1007.22
2023-01-12T02:22:45.478Z,1007.22
2023-01-12T02:23:45.425Z,1007.16
2023-01-12T02:24:45.425Z,1007.21
2023-01-12T02:25:45.436Z,1007.18
2023-01-12T02:26:45.403Z,1007.21
2023-01-12T02:27:45.394Z,1007.22
2023-01-12T02:28:45.380Z,1007.26
2023-01-12T02:29:45.370Z,1007.22
2023-01-12T02:30:45.379Z,1007.22
2023-01-12T02:31:45.339Z,1007.23
2023-01-12T02:32:45.330Z,1007.22
2023-01-12T02:33:45.319Z,1007.17
2023-01-12T02:34:45.303Z,1007.21
2023-01-12T02:35:45.342Z,1007.15
2023-01-12T02:36:45.269Z,1007.10
2023-01-12T02:37:45.257Z,1007.08
2023-01-12T02:38:45.259Z,1007.09
2023-01-12T02:39:45.239Z,1007.10
2023-01-12T02:40:45.279Z,1007.06
2023-01-12T02:41:45.219Z,1007.03
2023-01-12T02:42:45.230Z,1006.99
2023-01-12T02:43:45.193Z,1007.00
2023-01-12T02:44:45.203Z,1006.95
2023-01-12T02:45:45.219Z,1006.97
2023-01-12T02:46:45.220Z,1006.92
2023-01-12T02:47:45.167Z,1006.95
2023-01-12T02:48:45.150Z,1006.94
2023-01-12T02:49:45.150Z,1006.96
2023-01-12T02:50:45.165Z,1006.92
2023-01-12T02:51:45.105Z,1006.84
2023-01-12T02:52:45.097Z,1006.87
2023-01-12T02:53:45.087Z,1006.88
2023-01-12T02:54:45.080Z,1006.86
2023-01-12T02:55:45.108Z,1006.89
2023-01-12T02:56:45.042Z,1006.86
2023-01-12T02:57:45.064Z,1006.83
2023-01-12T02:58:45.020Z,1006.83
2023-01-12T02:59:45.028Z,1006.74
2023-01-12T03:00:45.131Z,1006.76
2023-01-12T03:01:45.040Z,1006.67
2023-01-12T03:02:45.061Z,1006.69
2023-01-12T03:03:44.995Z,1006.71
2023-01-12T03:04:44.978Z,1006.70
2023-01-12T03:05:44.979Z,1006.70
2023-01-12T03:06:44.946Z,1006.76
2023-01-12T03:07:44.929Z,1006.77
2023-01-12T03:08:44.954Z,1006.79
2023-01-12T03:09:44.910Z,1006.81
2023-01-12T03:10:44.929Z,1006.78
2023-01-12T03:11:44.876Z,1006.77
2023-01-12T03:12:44.890Z,1006.75
2023-01-12T03:13:44.880Z,1006.77
2023-01-12T03:14:44.871Z,1006.74
2023-01-12T03:15:44.866Z,1006.74
2023-01-12T03:16:44.835Z,1006.77
2023-01-12T03:17:44.847Z,1006.74
2023-01-12T03:18:44.806Z,1006.71
2023-01-12T03:19:44.801Z,1006.69
2023-01-12T03:20:44.834Z,1006.71
2023-01-12T03:21:44.761Z,1006.68
2023-01-12T03:22:44.761Z,1006.69
2023-01-12T03:23:44.744Z,1006.69
2023-01-12T03:24:44.744Z,1006.69
2023-01-12T03:25:44.755Z,1006.68
2023-01-12T03:26:44.713Z,1006.68
2023-01-12T03:27:44.702Z,1006.74
2023-01-12T03:28:44.697Z,1006.73
2023-01-12T03:29:44.690Z,1006.72
2023-01-12T03:30:44.739Z,1006.67
2023-01-12T03:31:44.679Z,1006.66
2023-01-12T03:32:44.632Z,1006.62
2023-01-12T03:33:44.651Z,1006.62
2023-01-12T03:34:44.655Z,1006.61
2023-01-12T03:35:44.663Z,1006.57
2023-01-12T03:36:44.612Z,1006.60
2023-01-12T03:37:44.591Z,1006.60
2023-01-12T03:38:44.595Z,1006.63
2023-01-12T03:39:44.553Z,1006.61
2023-01-12T03:40:44.595Z,1006.66
2023-01-12T03:41:44.556Z,1006.62
2023-01-12T03:42:44.551Z,1006.61
2023-01-12T03:43:44.529Z,1006.69
2023-01-12T03:44:44.524Z,1006.65
2023-01-12T03:45:44.539Z,1006.60
2023-01-12T03:46:44.576Z,1006.60
2023-01-12T03:47:44.486Z,1006.63
2023-01-12T03:48:44.460Z,1006.60
2023-01-12T03:49:44.452Z,1006.61
2023-01-12T03:50:44.497Z,1006.55
2023-01-12T03:51:44.422Z,1006.57
2023-01-12T03:52:44.422Z,1006.52
2023-01-12T03:53:44.405Z,1006.52
2023-01-12T03:54:44.447Z,1006.50
2023-01-12T03:55:44.431Z,1006.57
2023-01-12T03:56:44.381Z,1006.54
2023-01-12T03:57:44.363Z,1006.53
2023-01-12T03:58:44.357Z,1006.55
2023-01-12T03:59:44.341Z,1006.50
2023-01-12T04:00:44.450Z,1006.47
2023-01-12T04:01:44.414Z,1006.45
2023-01-12T04:02:44.307Z,1006.50
2023-01-12T04:03:44.315Z,1006.46
2023-01-12T04:04:44.304Z,1006.49
2023-01-12T04:05:44.313Z,1006.43
2023-01-12T04:06:44.268Z,1006.54
2023-01-12T04:07:44.252Z,1006.55
2023-01-12T04:08:44.240Z,1006.54
2023-01-12T04:09:44.228Z,1006.53
2023-01-12T04:10:44.278Z,1006.51
2023-01-12T04:11:44.208Z,1006.48
2023-01-12T04:12:44.192Z,1006.50
2023-01-12T04:13:44.174Z,1006.50
2023-01-12T04:14:46.217Z,1006.49
2023-01-12T04:15:44.180Z,1006.44
2023-01-12T04:16:44.144Z,1006.38
2023-01-12T04:17:44.137Z,1006.38
2023-01-12T04:18:44.149Z,1006.37
2023-01-12T04:19:44.122Z,1006.32
2023-01-12T04:20:44.147Z,1006.34
2023-01-12T04:21:44.108Z,1006.34
2023-01-12T04:22:44.107Z,1006.26
2023-01-12T04:23:44.094Z,1006.24
2023-01-12T04:24:44.084Z,1006.29
2023-01-12T04:25:44.099Z,1006.29
2023-01-12T04:26:44.035Z,1006.24
2023-01-12T04:27:44.031Z,1006.26
2023-01-12T04:28:44.041Z,1006.19
2023-01-12T04:29:44.004Z,1006.23
2023-01-12T04:30:44.047Z,1006.21
2023-01-12T04:31:44.074Z,1006.23
2023-01-12T04:32:43.989Z,1006.21
2023-01-12T04:33:43.960Z,1006.21
2023-01-12T04:34:43.952Z,1006.20
2023-01-12T04:35:43.964Z,1006.22
2023-01-12T04:36:43.953Z,1006.20
2023-01-12T04:37:43.932Z,1006.21
2023-01-12T04:38:43.915Z,1006.16
2023-01-12T04:39:43.892Z,1006.18
2023-01-12T04:40:43.952Z,1006.18
2023-01-12T04:41:43.877Z,1006.18
2023-01-12T04:42:43.849Z,1006.18
2023-01-12T04:43:43.833Z,1006.16
2023-01-12T04:44:43.827Z,1006.18
2023-01-12T04:45:43.996Z,1006.16
2023-01-12T04:46:43.834Z,1006.22
2023-01-12T04:47:43.800Z,1006.22
2023-01-12T04:48:43.788Z,1006.24
2023-01-12T04:49:43.786Z,1006.17
2023-01-12T04:50:43.824Z,1006.12
2023-01-12T04:51:43.746Z,1006.15
2023-01-12T04:52:43.766Z,1006.21
2023-01-12T04:53:43.789Z,1006.20
2023-01-12T04:54:43.716Z,1006.17
2023-01-12T04:55:43.757Z,1006.15
2023-01-12T04:56:43.699Z,1006.08
2023-01-12T04:57:43.679Z,1006.11
2023-01-12T04:58:43.678Z,1006.13
2023-01-12T04:59:43.660Z,1006.14
2023-01-12T05:00:43.704Z,1006.21
2023-01-12T05:01:43.777Z,1006.22
2023-01-12T05:02:43.627Z,1006.17
2023-01-12T05:03:43.663Z,1006.16
2023-01-12T05:04:43.611Z,1006.18
2023-01-12T05:05:43.636Z,1006.16
2023-01-12T05:06:43.587Z,1006.19
2023-01-12T05:07:43.569Z,1006.08
2023-01-12T05:08:43.559Z,1006.11
2023-01-12T05:09:43.556Z,1006.11
2023-01-12T05:10:43.564Z,1006.09
2023-01-12T05:11:43.523Z,1006.06
2023-01-12T05:12:43.516Z,1006.03
2023-01-12T05:13:43.508Z,1005.99
2023-01-12T05:14:43.499Z,1006.05
2023-01-12T05:15:43.484Z,1006.06
2023-01-12T05:16:43.490Z,1006.07
2023-01-12T05:17:43.467Z,1006.01
2023-01-12T05:18:43.445Z,1005.99
2023-01-12T05:19:43.428Z,1005.94
2023-01-12T05:20:43.457Z,1006.02
2023-01-12T05:21:43.423Z,1006.09
2023-01-12T05:22:43.403Z,1006.04
2023-01-12T05:23:43.386Z,1006.03
2023-01-12T05:24:43.379Z,1006.01
2023-01-12T05:25:43.401Z,1006.00
2023-01-12T05:26:43.360Z,1005.98
2023-01-12T05:27:43.351Z,1005.96
2023-01-12T05:28:43.330Z,1006.03
2023-01-12T05:29:43.313Z,1005.95
2023-01-12T05:30:43.364Z,1005.99
2023-01-12T05:31:43.301Z,1005.99
2023-01-12T05:32:43.288Z,1005.99
2023-01-12T05:33:43.282Z,1005.96
2023-01-12T05:34:43.275Z,1005.93
2023-01-12T05:35:43.301Z,1005.92
2023-01-12T05:36:43.258Z,1005.89
2023-01-12T05:37:43.237Z,1005.84
2023-01-12T05:38:43.222Z,1005.85
2023-01-12T05:39:43.222Z,1005.80
2023-01-12T05:40:43.239Z,1005.77
2023-01-12T05:41:43.186Z,1005.78
2023-01-12T05:42:43.186Z,1005.75
2023-01-12T05:43:43.161Z,1005.81
2023-01-12T05:44:43.143Z,1005.73
2023-01-12T05:45:43.219Z,1005.78
2023-01-12T05:46:43.118Z,1005.78
2023-01-12T05:47:43.111Z,1005.79
2023-01-12T05:48:43.089Z,1005.79
2023-01-12T05:49:43.107Z,1005.76
2023-01-12T05:50:43.121Z,1005.79
2023-01-12T05:51:43.074Z,1005.88
2023-01-12T05:52:43.053Z,1005.79
2023-01-12T05:53:43.052Z,1005.81
2023-01-12T05:54:43.045Z,1005.82
2023-01-12T05:55:43.065Z,1005.81
2023-01-12T05:56:43.018Z,1005.80
2023-01-12T05:57:43.002Z,1005.81
2023-01-12T05:58:42.984Z,1005.78
2023-01-12T05:59:42.975Z,1005.74
2023-01-12T06:00:43.023Z,1005.77
2023-01-12T06:01:42.981Z,1005.74
2023-01-12T06:02:42.968Z,1005.73
2023-01-12T06:03:42.958Z,1005.72
2023-01-12T06:04:43.031Z,1005.73
2023-01-12T06:05:42.930Z,1005.75
2023-01-12T06:06:42.949Z,1005.69
2023-01-12T06:07:42.897Z,1005.69
2023-01-12T06:08:42.870Z,1005.72
2023-01-12T06:09:42.876Z,1005.68
2023-01-12T06:10:42.853Z,1005.68
2023-01-12T06:11:42.916Z,1005.66
2023-01-12T06:12:42.829Z,1005.69
2023-01-12T06:13:42.858Z,1005.70
2023-01-12T06:14:42.822Z,1005.68
2023-01-12T06:15:42.816Z,1005.70
2023-01-12T06:16:42.857Z,1005.70
2023-01-12T06:17:42.805Z,1005.68
2023-01-12T06:18:42.767Z,1005.69
2023-01-12T06:19:42.765Z,1005.73
2023-01-12T06:20:42.754Z,1005.76
2023-01-12T06:21:42.788Z,1005.73
2023-01-12T06:22:42.732Z,1005.69
2023-01-12T06:23:42.709Z,1005.69
2023-01-12T06:24:42.711Z,1005.63
2023-01-12T06:25:42.731Z,1005.64
2023-01-12T06:26:42.740Z,1005.64
2023-01-12T06:27:42.677Z,1005.63
2023-01-12T06:28:42.670Z,1005.66
2023-01-12T06:29:42.649Z,1005.56
2023-01-12T06:30:42.651Z,1005.65
2023-01-12T06:31:42.651Z,1005.61
2023-01-12T06:32:42.630Z,1005.65
2023-01-12T06:33:42.593Z,1005.61
2023-01-12T06:34:42.584Z,1005.62
2023-01-12T06:35:42.586Z,1005.66
2023-01-12T06:36:42.639Z,1005.65
2023-01-12T06:37:42.555Z,1005.68
2023-01-12T06:38:42.557Z,1005.65
2023-01-12T06:39:42.565Z,1005.68
2023-01-12T06:40:42.531Z,1005.65
2023-01-12T06:41:42.572Z,1005.69
2023-01-12T06:42:42.504Z,1005.67
2023-01-12T06:43:42.501Z,1005.69
2023-01-12T06:44:42.492Z,1005.67
2023-01-12T06:45:42.490Z,1005.73
2023-01-12T06:46:42.522Z,1005.69
2023-01-12T06:47:42.436Z,1005.69
2023-01-12T06:48:42.452Z,1005.70
2023-01-12T06:49:42.426Z,1005.72
2023-01-12T06:50:42.461Z,1005.73
2023-01-12T06:51:42.403Z,1005.71
2023-01-12T06:52:42.423Z,1005.66
2023-01-12T06:53:42.375Z,1005.72
2023-01-12T06:54:42.370Z,1005.70
2023-01-12T06:55:42.351Z,1005.76
2023-01-12T06:56:42.334Z,1005.74
2023-01-12T06:57:42.399Z,1005.77
2023-01-12T06:58:42.332Z,1005.76
2023-01-12T06:59:42.347Z,1005.70
2023-01-12T07:00:42.326Z,1005.72
2023-01-12T07:01:42.338Z,1005.73
2023-01-12T07:02:42.294Z,1005.73
2023-01-12T07:03:42.275Z,1005.73
2023-01-12T07:04:42.304Z,1005.77
2023-01-12T07:05:42.270Z,1005.69
2023-01-12T07:06:42.258Z,1005.72
2023-01-12T07:07:42.286Z,1005.74
2023-01-12T07:08:42.243Z,1005.75
2023-01-12T07:09:42.226Z,1005.72
2023-01-12T07:10:42.187Z,1005.68
2023-01-12T07:11:42.212Z,1005.69
2023-01-12T07:12:42.222Z,1005.67
2023-01-12T07:13:42.174Z,1005.66
2023-01-12T07:14:42.155Z,1005.68
2023-01-12T07:15:42.165Z,1005.66
2023-01-12T07:16:42.117Z,1005.66
2023-01-12T07:17:42.160Z,1005.64
2023-01-12T07:18:42.079Z,1005.63
2023-01-12T07:19:42.091Z,1005.60
2023-01-12T07:20:42.089Z,1005.60
2023-01-12T07:21:42.086Z,1005.62
2023-01-12T07:22:42.102Z,1005.63
2023-01-12T07:23:42.063Z,1005.62
2023-01-12T07:24:42.021Z,1005.60
2023-01-12T07:25:42.056Z,1005.61
2023-01-12T07:26:42.028Z,1005.63
2023-01-12T07:27:42.053Z,1005.64
2023-01-12T07:28:41.968Z,1005.64
2023-01-12T07:29:42.011Z,1005.66
2023-01-12T07:30:41.979Z,1005.61
2023-01-12T07:31:41.947Z,1005.62
2023-01-12T07:32:41.977Z,1005.65
2023-01-12T07:33:41.933Z,1005.62
2023-01-12T07:34:41.944Z,1005.60
2023-01-12T07:35:41.925Z,1005.58
2023-01-12T07:36:41.917Z,1005.61
2023-01-12T07:37:41.935Z,1005.57
2023-01-12T07:38:41.890Z,1005.56
2023-01-12T07:39:41.881Z,1005.59
2023-01-12T07:40:41.862Z,1005.53
2023-01-12T07:41:41.847Z,1005.52
2023-01-12T07:42:41.866Z,1005.51
2023-01-12T07:43:41.829Z,1005.53
2023-01-12T07:44:41.837Z,1005.56
2023-01-12T07:45:41.810Z,1005.57
2023-01-12T07:46:41.820Z,1005.50
2023-01-12T07:47:41.836Z,1005.55
2023-01-12T07:48:41.778Z,1005.51
2023-01-12T07:49:41.758Z,1005.50
2023-01-12T07:50:41.744Z,1005.48
2023-01-12T07:51:41.723Z,1005.50
2023-01-12T07:52:41.757Z,1005.51
2023-01-12T07:53:41.767Z,1005.54
2023-01-12T07:54:41.709Z,1005.49
2023-01-12T07:55:41.684Z,1005.52
2023-01-12T07:56:44.088Z,1005.51
2023-01-12T07:57:41.686Z,1005.48
2023-01-12T07:58:41.718Z,1005.51
2023-01-12T07:59:41.697Z,1005.51
2023-01-12T08:00:41.626Z,1005.46
2023-01-12T08:01:41.694Z,1005.43
2023-01-12T08:02:41.606Z,1005.44
2023-01-12T08:03:41.629Z,1005.41
2023-01-12T08:04:41.599Z,1005.43
2023-01-12T08:05:41.677Z,1005.41
2023-01-12T08:06:41.589Z,1005.38
2023-01-12T08:07:41.555Z,1005.37
2023-01-12T08:08:41.590Z,1005.41
2023-01-12T08:09:41.541Z,1005.46
2023-01-12T08:10:41.514Z,1005.41
2023-01-12T08:11:41.502Z,1005.48
2023-01-12T08:12:41.492Z,1005.47
2023-01-12T08:13:41.542Z,1005.38
2023-01-12T08:14:41.499Z,1005.42
2023-01-12T08:15:41.473Z,1005.41
2023-01-12T08:16:41.436Z,1005.38
2023-01-12T08:17:41.439Z,1005.41
2023-01-12T08:18:41.470Z,1005.36
2023-01-12T08:19:41.444Z,1005.39
2023-01-12T08:20:41.412Z,1005.35
2023-01-12T08:21:41.397Z,1005.32
2023-01-12T08:22:41.381Z,1005.33
2023-01-12T08:23:41.980Z,1005.29
2023-01-12T08:24:41.349Z,1005.31
2023-01-12T08:25:41.346Z,1005.33
2023-01-12T08:26:41.359Z,1005.25
2023-01-12T08:27:41.333Z,1005.24
2023-01-12T08:28:41.360Z,1005.21
2023-01-12T08:29:41.327Z,1005.23
2023-01-12T08:30:41.309Z,1005.24
2023-01-12T08:31:41.295Z,1005.14
2023-01-12T08:32:41.340Z,1005.07
2023-01-12T08:33:41.313Z,1005.07
2023-01-12T08:34:41.266Z,1005.10
2023-01-12T08:35:41.220Z,1005.11
2023-01-12T08:36:43.049Z,1005.08
2023-01-12T08:37:41.219Z,1005.09
2023-01-12T08:38:41.239Z,1005.20
2023-01-12T08:39:41.189Z,1005.22
2023-01-12T08:40:41.168Z,1005.16
2023-01-12T08:41:41.173Z,1004.95
2023-01-12T08:42:41.150Z,1004.91
2023-01-12T08:43:41.199Z,1005.08
2023-01-12T08:44:41.111Z,1005.15
2023-01-12T08:45:41.111Z,1005.11
2023-01-12T08:46:41.155Z,1005.25
2023-01-12T08:47:41.108Z,1005.21
2023-01-12T08:48:41.115Z,1005.14
2023-01-12T08:49:41.057Z,1005.17
2023-01-12T08:50:41.068Z,1005.14
2023-01-12T08:51:41.053Z,1005.16
2023-01-12T08:52:41.038Z,1005.17
2023-01-12T08:53:41.065Z,1005.11
2023-01-12T08:54:41.002Z,1005.10
2023-01-12T08:55:41.014Z,1005.08
2023-01-12T08:56:40.995Z,1005.07
2023-01-12T08:57:40.990Z,1005.09
2023-01-12T08:58:41.028Z,1005.14
2023-01-12T08:59:40.965Z,1005.11
2023-01-12T09:00:41.010Z,1005.10
2023-01-12T09:01:41.145Z,1005.13
2023-01-12T09:02:40.964Z,1005.15
2023-01-12T09:03:40.988Z,1005.11
2023-01-12T09:04:40.924Z,1005.11
2023-01-12T09:05:40.919Z,1005.10
2023-01-12T09:06:40.880Z,1005.06
2023-01-12T09:07:40.892Z,1005.02
2023-01-12T09:08:40.845Z,1005.05
2023-01-12T09:09:40.886Z,1005.07
2023-01-12T09:10:40.827Z,1005.03
2023-01-12T09:11:40.832Z,1004.99
2023-01-12T09:12:40.791Z,1004.99
2023-01-12T09:13:40.785Z,1004.92
2023-01-12T09:14:40.812Z,1004.86
2023-01-12T09:15:41.177Z,1004.90
2023-01-12T09:16:40.846Z,1004.85
2023-01-12T09:17:40.767Z,1004.82
2023-01-12T09:18:40.753Z,1004.84
2023-01-12T09:19:40.757Z,1004.83
2023-01-12T09:20:40.721Z,1004.77
2023-01-12T09:21:40.736Z,1004.82
2023-01-12T09:22:40.688Z,1004.76
2023-01-12T09:23:40.715Z,1004.68
2023-01-12T09:24:40.734Z,1004.69
2023-01-12T09:25:40.673Z,1004.74
2023-01-12T09:26:40.649Z,1004.65
2023-01-12T09:27:40.635Z,1004.67
2023-01-12T09:28:40.638Z,1004.61
2023-01-12T09:29:40.652Z,1004.66
2023-01-12T09:30:40.593Z,1004.61
2023-01-12T09:31:40.633Z,1004.63
2023-01-12T09:32:40.589Z,1004.54
2023-01-12T09:33:40.565Z,1004.59
2023-01-12T09:34:40.628Z,1004.60
2023-01-12T09:35:40.555Z,1004.56
2023-01-12T09:36:40.600Z,1004.47
2023-01-12T09:37:40.562Z,1004.52
2023-01-12T09:38:40.521Z,1004.46
2023-01-12T09:39:40.541Z,1004.51
2023-01-12T09:40:40.483Z,1004.50
2023-01-12T09:41:40.501Z,1004.45
2023-01-12T09:42:40.464Z,1004.38
2023-01-12T09:43:40.442Z,1004.37
2023-01-12T09:44:40.466Z,1004.41
2023-01-12T09:45:40.445Z,1004.39
2023-01-12T09:46:40.494Z,1004.41
2023-01-12T09:47:40.420Z,1004.39
2023-01-12T09:48:40.388Z,1004.39
2023-01-12T09:49:40.410Z,1004.40
2023-01-12T09:50:40.402Z,1004.42
2023-01-12T09:51:40.395Z,1004.43
2023-01-12T09:52:40.350Z,1004.40
2023-01-12T09:53:40.373Z,1004.42
2023-01-12T09:54:40.387Z,1004.33
2023-01-12T09:55:40.334Z,1004.30
2023-01-12T09:56:40.320Z,1004.23
2023-01-12T09:57:40.293Z,1004.35
2023-01-12T09:58:40.314Z,1004.34
2023-01-12T09:59:40.266Z,1004.26
2023-01-12T10:00:40.336Z,1004.20
2023-01-12T10:01:40.324Z,1004.32
2023-01-12T10:02:40.451Z,1004.31
2023-01-12T10:03:40.294Z,1004.20
2023-01-12T10:04:40.234Z,1004.20
2023-01-12T10:05:40.465Z,1004.18
2023-01-12T10:06:40.192Z,1004.08
2023-01-12T10:07:42.107Z,1004.20
2023-01-12T10:08:40.180Z,1004.11
2023-01-12T10:09:40.166Z,1004.16
2023-01-12T10:10:40.206Z,1004.11
2023-01-12T10:11:40.132Z,1004.07
2023-01-12T10:12:40.116Z,1004.07
2023-01-12T10:13:40.086Z,1004.04
2023-01-12T10:14:40.156Z,1004.08
2023-01-12T10:15:40.144Z,1004.04
2023-01-12T10:16:40.160Z,1004.06
2023-01-12T10:17:50.740Z,1004.03
2023-01-12T10:18:41.095Z,1004.06
2023-01-12T10:19:40.049Z,1004.07
2023-01-12T10:20:40.036Z,1004.02
2023-01-12T10:21:40.072Z,1004.07
2023-01-12T10:22:40.010Z,1004.06
2023-01-12T10:23:40.055Z,1004.07
2023-01-12T10:24:39.995Z,1003.85
2023-01-12T10:25:39.977Z,1004.06
2023-01-12T10:26:40.023Z,1004.09
2023-01-12T10:27:40.821Z,1004.07
2023-01-12T10:28:39.946Z,1004.03
2023-01-12T10:29:39.937Z,1004.04
2023-01-12T10:30:39.933Z,1003.94
2023-01-12T10:31:39.995Z,1003.90
2023-01-12T10:32:41.965Z,1003.84
2023-01-12T10:33:39.889Z,1004.01
2023-01-12T10:34:39.859Z,1003.91
2023-01-12T10:35:39.907Z,1003.93
2023-01-12T10:36:39.915Z,1003.98
2023-01-12T10:37:39.839Z,1003.91
2023-01-12T10:38:39.847Z,1003.89
2023-01-12T10:39:39.842Z,1003.76
2023-01-12T10:40:39.797Z,1003.79
2023-01-12T10:41:39.801Z,1003.67
2023-01-12T10:42:39.798Z,1003.84
2023-01-12T10:43:39.759Z,1003.76
2023-01-12T10:44:39.777Z,1003.81
2023-01-12T10:45:39.795Z,1003.81
2023-01-12T10:46:39.784Z,1003.80
2023-01-12T10:47:39.725Z,1003.77
2023-01-12T10:48:39.741Z,1003.68
2023-01-12T10:49:39.719Z,1003.71
2023-01-12T10:50:39.703Z,1003.59
2023-01-12T10:51:39.720Z,1003.56
2023-01-12T10:52:39.672Z,1003.53
2023-01-12T10:53:39.679Z,1003.58
2023-01-12T10:54:39.660Z,1003.51
2023-01-12T10:55:39.675Z,1003.48
2023-01-12T10:56:39.695Z,1003.55
2023-01-12T10:57:39.604Z,1003.49
2023-01-12T10:58:39.612Z,1003.51
2023-01-12T10:59:39.591Z,1003.41
2023-01-12T11:00:39.629Z,1003.41
2023-01-12T11:01:39.744Z,1003.41
2023-01-12T11:02:39.636Z,1003.41
2023-01-12T11:03:39.550Z,1003.44
2023-01-12T11:04:39.532Z,1003.42
2023-01-12T11:05:39.552Z,1003.32
2023-01-12T11:06:39.558Z,1003.40
2023-01-12T11:07:39.525Z,1003.30
2023-01-12T11:08:39.519Z,1003.14
2023-01-12T11:09:39.490Z,1003.21
2023-01-12T11:10:39.481Z,1003.19
2023-01-12T11:11:39.482Z,1003.20
2023-01-12T11:12:39.429Z,1003.19
2023-01-12T11:13:39.426Z,1003.13
2023-01-12T11:14:39.440Z,1003.11
2023-01-12T11:15:39.422Z,1003.14
2023-01-12T11:16:39.472Z,1003.14
2023-01-12T11:17:39.413Z,1003.11
2023-01-12T11:18:39.365Z,1003.09
2023-01-12T11:19:39.367Z,1003.10
2023-01-12T11:20:39.359Z,1003.03
2023-01-12T11:21:39.373Z,1003.10
2023-01-12T11:22:39.335Z,1003.06
2023-01-12T11:23:39.312Z,1003.09
2023-01-12T11:24:39.324Z,1003.19
2023-01-12T11:25:39.292Z,1003.11
2023-01-12T11:26:39.341Z,1003.07
2023-01-12T11:27:39.275Z,1003.05
2023-01-12T11:28:39.281Z,1003.06
2023-01-12T11:29:39.247Z,1003.01
2023-01-12T11:30:39.285Z,1003.09
2023-01-12T11:31:39.242Z,1002.97
2023-01-12T11:32:39.216Z,1003.04
2023-01-12T11:33:39.219Z,1002.98
2023-01-12T11:34:39.196Z,1002.93
2023-01-12T11:35:39.197Z,1002.93
2023-01-12T11:36:39.250Z,1002.94
2023-01-12T11:37:39.168Z,1002.99
2023-01-12T11:38:39.158Z,1002.97
2023-01-12T11:39:39.115Z,1002.91
2023-01-12T11:40:39.131Z,1003.01
2023-01-12T11:41:39.151Z,1002.91
2023-01-12T11:42:39.128Z,1002.89
2023-01-12T11:43:39.087Z,1002.80
2023-01-12T11:44:39.119Z,1002.91
2023-01-12T11:45:39.089Z,1002.88
2023-01-12T11:46:39.102Z,1002.91
2023-01-12T11:47:41.639Z,1002.95
2023-01-12T11:48:39.048Z,1002.87
2023-01-12T11:49:39.024Z,1002.85
2023-01-12T11:50:39.048Z,1002.80
2023-01-12T11:51:39.045Z,1002.91
2023-01-12T11:52:38.984Z,1002.87
2023-01-12T11:53:41.310Z,1002.82
2023-01-12T11:54:38.983Z,1002.79
2023-01-12T11:55:38.949Z,1002.81
2023-01-12T11:56:38.996Z,1002.87
2023-01-12T11:57:38.940Z,1002.89
2023-01-12T11:58:38.931Z,1002.79
2023-01-12T11:59:40.869Z,1002.76
2023-01-12T12:00:38.891Z,1002.62
2023-01-12T12:01:38.887Z,1002.79
2023-01-12T12:02:39.009Z,1002.84
2023-01-12T12:03:39.109Z,1002.83
2023-01-12T12:04:38.838Z,1002.79
2023-01-12T12:05:41.202Z,1002.77